sensor_id;sensor_type;location;lat;lon;timestamp;P1;durP1;ratioP1;P2;durP2;ratioP2
76758;SDS011;65701;45.588;5.186;2024-02-04T09:12:14;9.00;;;7.00;;
76758;SDS011;65701;45.588;5.186;2024-02-04T09:14:39;6.25;;;6.25;;
76758;SDS011;65701;45.588;5.186;2024-02-04T09:17:05;6.75;;;6.75;;
76758;SDS011;65701;45.588;5.186;2024-02-04T09:19:31;5.50;;;2.50;;
76758;SDS011;65701;45.588;5.186;2024-02-04T09:21:57;5.25;;;4.75;;
76758;SDS011;65701;45.588;5.186;2024-02-04T09:24:22;7.50;;;6.00;;
76758;SDS011;65701;45.588;5.186;2024-02-04T09:26:48;5.00;;;5.00;;
76758;SDS011;65701;45.588;5.186;2024-02-04T09:29:13;8.25;;;6.75;;
76758;SDS011;65701;45.588;5.186;2024-02-04T09:31:39;9.00;;;9.00;;
76758;SDS011;65701;45.588;5.186;2024-02-04T09:34:04;3.25;;;3.25;;
76758;SDS011;65701;45.588;5.186;2024-02-04T09:36:30;7.00;;;5.75;;
76758;SDS011;65701;45.588;5.186;2024-02-04T09:38:55;8.50;;;7.75;;
76758;SDS011;65701;45.588;5.186;2024-02-04T09:41:21;2.00;;;1.00;;
76758;SDS011;65701;45.588;5.186;2024-02-04T09:43:51;8.50;;;8.00;;
76758;SDS011;65701;45.588;5.186;2024-02-04T09:46:18;9.00;;;8.00;;
76758;SDS011;65701;45.588;5.186;2024-02-04T09:48:44;10.00;;;10.00;;
76758;SDS011;65701;45.588;5.186;2024-02-04T09:51:11;8.00;;;8.00;;
76758;SDS011;65701;45.588;5.186;2024-02-04T09:53:37;9.00;;;5.00;;
76758;SDS011;65701;45.588;5.186;2024-02-04T09:56:09;7.00;;;4.50;;
76758;SDS011;65701;45.588;5.186;2024-02-04T09:58:36;5.00;;;5.00;;
76758;SDS011;65701;45.588;5.186;2024-02-04T10:01:01;4.75;;;3.25;;
76758;SDS011;65701;45.588;5.186;2024-02-04T10:03:29;6.00;;;6.00;;
76758;SDS011;65701;45.588;5.186;2024-02-04T10:05:55;9.25;;;8.50;;
76758;SDS011;65701;45.588;5.186;2024-02-04T10:08:21;5.00;;;5.00;;
76758;SDS011;65701;45.588;5.186;2024-02-04T10:10:47;5.25;;;2.25;;
76758;SDS011;65701;45.588;5.186;2024-02-04T10:13:13;5.50;;;4.50;;
76758;SDS011;65701;45.588;5.186;2024-02-04T10:15:39;7.50;;;5.00;;
76758;SDS011;65701;45.588;5.186;2024-02-04T10:18:05;3.50;;;3.00;;
76758;SDS011;65701;45.588;5.186;2024-02-04T10:20:32;6.50;;;4.50;;
76758;SDS011;65701;45.588;5.186;2024-02-04T10:22:58;10.75;;;8.75;;
76758;SDS011;65701;45.588;5.186;2024-02-04T10:25:24;16.75;;;14.00;;
76758;SDS011;65701;45.588;5.186;2024-02-04T10:27:49;7.25;;;5.00;;
76758;SDS011;65701;45.588;5.186;2024-02-04T10:30:15;6.50;;;6.50;;
76758;SDS011;65701;45.588;5.186;2024-02-04T10:32:43;5.00;;;5.00;;
76758;SDS011;65701;45.588;5.186;2024-02-04T10:35:11;12.75;;;8.25;;
76758;SDS011;65701;45.588;5.186;2024-02-04T10:37:36;14.50;;;9.25;;
76758;SDS011;65701;45.588;5.186;2024-02-04T10:40:02;9.75;;;8.00;;
76758;SDS011;65701;45.588;5.186;2024-02-04T10:42:30;8.75;;;7.25;;
76758;SDS011;65701;45.588;5.186;2024-02-04T10:44:57;10.25;;;10.00;;
76758;SDS011;65701;45.588;5.186;2024-02-04T10:47:25;8.50;;;6.25;;
76758;SDS011;65701;45.588;5.186;2024-02-04T10:49:58;4.00;;;2.50;;
76758;SDS011;65701;45.588;5.186;2024-02-04T10:52:27;11.75;;;11.75;;
76758;SDS011;65701;45.588;5.186;2024-02-04T10:54:53;5.00;;;5.00;;
76758;SDS011;65701;45.588;5.186;2024-02-04T10:57:20;11.00;;;9.25;;
76758;SDS011;65701;45.588;5.186;2024-02-04T10:59:51;10.00;;;8.75;;
76758;SDS011;65701;45.588;5.186;2024-02-04T11:02:17;8.50;;;8.50;;
76758;SDS011;65701;45.588;5.186;2024-02-04T11:04:42;6.75;;;6.75;;
76758;SDS011;65701;45.588;5.186;2024-02-04T11:07:13;8.75;;;8.00;;
76758;SDS011;65701;45.588;5.186;2024-02-04T11:09:40;10.75;;;8.00;;
76758;SDS011;65701;45.588;5.186;2024-02-04T11:12:09;15.00;;;11.50;;
76758;SDS011;65701;45.588;5.186;2024-02-04T11:14:39;13.00;;;10.00;;
76758;SDS011;65701;45.588;5.186;2024-02-04T11:20:30;15.75;;;11.50;;
76758;SDS011;65701;45.588;5.186;2024-02-04T11:25:53;20.25;;;15.50;;
76758;SDS011;65701;45.588;5.186;2024-02-04T11:28:21;19.25;;;16.50;;
76758;SDS011;65701;45.588;5.186;2024-02-04T11:30:48;14.50;;;10.00;;
76758;SDS011;65701;45.588;5.186;2024-02-04T11:33:20;11.50;;;9.75;;
76758;SDS011;65701;45.588;5.186;2024-02-04T11:35:46;11.25;;;9.25;;
76758;SDS011;65701;45.588;5.186;2024-02-04T11:38:23;9.75;;;9.00;;
76758;SDS011;65701;45.588;5.186;2024-02-04T11:40:55;13.75;;;10.75;;
76758;SDS011;65701;45.588;5.186;2024-02-04T11:43:22;9.75;;;9.75;;
76758;SDS011;65701;45.588;5.186;2024-02-04T11:45:51;13.00;;;13.00;;
76758;SDS011;65701;45.588;5.186;2024-02-04T11:48:17;15.25;;;10.00;;
76758;SDS011;65701;45.588;5.186;2024-02-04T11:50:43;10.50;;;9.25;;
76758;SDS011;65701;45.588;5.186;2024-02-04T11:53:16;8.25;;;6.00;;
76758;SDS011;65701;45.588;5.186;2024-02-04T11:55:43;15.00;;;10.00;;
76758;SDS011;65701;45.588;5.186;2024-02-04T11:58:10;7.25;;;7.25;;
76758;SDS011;65701;45.588;5.186;2024-02-04T12:00:36;13.25;;;10.25;;
76758;SDS011;65701;45.588;5.186;2024-02-04T12:03:05;8.50;;;8.50;;
76758;SDS011;65701;45.588;5.186;2024-02-04T12:05:32;6.75;;;6.00;;
76758;SDS011;65701;45.588;5.186;2024-02-04T12:08:02;8.00;;;8.00;;
76758;SDS011;65701;45.588;5.186;2024-02-04T12:10:32;9.25;;;6.00;;
76758;SDS011;65701;45.588;5.186;2024-02-04T12:13:03;8.00;;;8.00;;
76758;SDS011;65701;45.588;5.186;2024-02-04T12:15:30;8.25;;;7.00;;
76758;SDS011;65701;45.588;5.186;2024-02-04T12:18:10;10.75;;;9.25;;
76758;SDS011;65701;45.588;5.186;2024-02-04T12:20:36;9.00;;;7.00;;
76758;SDS011;65701;45.588;5.186;2024-02-04T12:23:03;7.00;;;5.50;;
76758;SDS011;65701;45.588;5.186;2024-02-04T12:25:30;4.00;;;4.00;;
76758;SDS011;65701;45.588;5.186;2024-02-04T12:27:59;5.00;;;2.00;;
76758;SDS011;65701;45.588;5.186;2024-02-04T12:30:26;0.50;;;0.25;;
76758;SDS011;65701;45.588;5.186;2024-02-04T12:32:58;2.25;;;2.25;;
76758;SDS011;65701;45.588;5.186;2024-02-04T12:35:29;5.00;;;5.00;;
76758;SDS011;65701;45.588;5.186;2024-02-04T12:37:57;6.00;;;6.00;;
76758;SDS011;65701;45.588;5.186;2024-02-04T12:40:24;4.50;;;4.50;;
76758;SDS011;65701;45.588;5.186;2024-02-04T12:42:57;7.00;;;6.00;;
76758;SDS011;65701;45.588;5.186;2024-02-04T12:45:27;9.00;;;9.00;;
76758;SDS011;65701;45.588;5.186;2024-02-04T12:47:54;6.75;;;5.25;;
76758;SDS011;65701;45.588;5.186;2024-02-04T12:50:22;17.25;;;11.50;;
76758;SDS011;65701;45.588;5.186;2024-02-04T12:52:49;17.00;;;16.00;;
76758;SDS011;65701;45.588;5.186;2024-02-04T12:55:27;7.00;;;5.00;;
76758;SDS011;65701;45.588;5.186;2024-02-04T12:58:11;8.25;;;4.00;;
76758;SDS011;65701;45.588;5.186;2024-02-04T13:00:39;3.00;;;3.00;;
76758;SDS011;65701;45.588;5.186;2024-02-04T13:03:05;5.50;;;2.75;;
76758;SDS011;65701;45.588;5.186;2024-02-04T13:05:35;5.25;;;5.25;;
76758;SDS011;65701;45.588;5.186;2024-02-04T13:08:02;3.25;;;3.25;;
76758;SDS011;65701;45.588;5.186;2024-02-04T13:10:33;5.00;;;5.00;;
76758;SDS011;65701;45.588;5.186;2024-02-04T13:13:07;4.00;;;4.00;;
76758;SDS011;65701;45.588;5.186;2024-02-04T13:15:41;3.00;;;3.00;;
76758;SDS011;65701;45.588;5.186;2024-02-04T13:18:08;8.25;;;5.00;;
76758;SDS011;65701;45.588;5.186;2024-02-04T13:20:40;5.25;;;5.25;;
76758;SDS011;65701;45.588;5.186;2024-02-04T13:23:07;6.25;;;3.00;;
76758;SDS011;65701;45.588;5.186;2024-02-04T13:25:35;9.50;;;7.00;;
76758;SDS011;65701;45.588;5.186;2024-02-04T13:28:00;10.50;;;10.00;;
76758;SDS011;65701;45.588;5.186;2024-02-04T13:30:26;13.75;;;12.25;;
76758;SDS011;65701;45.588;5.186;2024-02-04T13:32:52;4.00;;;3.00;;
76758;SDS011;65701;45.588;5.186;2024-02-04T13:35:17;8.00;;;6.75;;
76758;SDS011;65701;45.588;5.186;2024-02-04T13:37:44;5.75;;;5.50;;
76758;SDS011;65701;45.588;5.186;2024-02-04T13:40:17;10.00;;;10.00;;
76758;SDS011;65701;45.588;5.186;2024-02-04T13:42:43;16.25;;;15.25;;
76758;SDS011;65701;45.588;5.186;2024-02-04T13:45:09;7.50;;;7.50;;
76758;SDS011;65701;45.588;5.186;2024-02-04T13:47:40;10.50;;;7.25;;
76758;SDS011;65701;45.588;5.186;2024-02-04T13:50:06;24.00;;;20.00;;
76758;SDS011;65701;45.588;5.186;2024-02-04T13:52:34;12.25;;;11.50;;
76758;SDS011;65701;45.588;5.186;2024-02-04T13:54:59;13.00;;;9.00;;
76758;SDS011;65701;45.588;5.186;2024-02-04T13:57:26;7.50;;;5.75;;
76758;SDS011;65701;45.588;5.186;2024-02-04T13:59:51;17.75;;;17.75;;
76758;SDS011;65701;45.588;5.186;2024-02-04T14:02:17;6.25;;;6.00;;
76758;SDS011;65701;45.588;5.186;2024-02-04T14:04:42;6.75;;;6.00;;
76758;SDS011;65701;45.588;5.186;2024-02-04T14:07:08;5.50;;;5.50;;
76758;SDS011;65701;45.588;5.186;2024-02-04T14:09:34;9.75;;;8.75;;
76758;SDS011;65701;45.588;5.186;2024-02-04T14:12:01;10.25;;;10.25;;
76758;SDS011;65701;45.588;5.186;2024-02-04T14:14:28;10.25;;;8.75;;
76758;SDS011;65701;45.588;5.186;2024-02-04T14:16:53;11.50;;;9.00;;
76758;SDS011;65701;45.588;5.186;2024-02-04T14:19:19;10.25;;;8.75;;
76758;SDS011;65701;45.588;5.186;2024-02-04T14:21:44;12.50;;;11.50;;
76758;SDS011;65701;45.588;5.186;2024-02-04T14:24:10;10.75;;;7.25;;
76758;SDS011;65701;45.588;5.186;2024-02-04T14:26:35;9.25;;;7.00;;
76758;SDS011;65701;45.588;5.186;2024-02-04T14:29:01;10.00;;;9.00;;
76758;SDS011;65701;45.588;5.186;2024-02-04T14:31:27;10.25;;;10.25;;
76758;SDS011;65701;45.588;5.186;2024-02-04T14:33:52;11.00;;;9.50;;
76758;SDS011;65701;45.588;5.186;2024-02-04T14:36:18;11.50;;;10.75;;
76758;SDS011;65701;45.588;5.186;2024-02-04T14:38:44;15.00;;;13.75;;
76758;SDS011;65701;45.588;5.186;2024-02-04T14:41:10;9.00;;;9.00;;
76758;SDS011;65701;45.588;5.186;2024-02-04T14:43:36;3.50;;;3.00;;
76758;SDS011;65701;45.588;5.186;2024-02-04T14:46:01;10.25;;;10.25;;
76758;SDS011;65701;45.588;5.186;2024-02-04T14:48:27;15.00;;;10.25;;
76758;SDS011;65701;45.588;5.186;2024-02-04T14:50:52;12.00;;;11.25;;
76758;SDS011;65701;45.588;5.186;2024-02-04T14:53:19;11.00;;;11.00;;
76758;SDS011;65701;45.588;5.186;2024-02-04T14:55:44;8.50;;;7.25;;
76758;SDS011;65701;45.588;5.186;2024-02-04T14:58:10;8.25;;;8.25;;
76758;SDS011;65701;45.588;5.186;2024-02-04T15:00:35;9.50;;;9.50;;
76758;SDS011;65701;45.588;5.186;2024-02-04T15:03:01;9.50;;;7.00;;
76758;SDS011;65701;45.588;5.186;2024-02-04T15:05:26;10.00;;;5.50;;
76758;SDS011;65701;45.588;5.186;2024-02-04T15:07:52;10.25;;;8.00;;
76758;SDS011;65701;45.588;5.186;2024-02-04T15:10:18;8.75;;;8.75;;
76758;SDS011;65701;45.588;5.186;2024-02-04T15:12:44;9.00;;;6.00;;
76758;SDS011;65701;45.588;5.186;2024-02-04T15:15:10;9.50;;;9.50;;
76758;SDS011;65701;45.588;5.186;2024-02-04T15:17:36;10.50;;;9.50;;
76758;SDS011;65701;45.588;5.186;2024-02-04T15:20:02;13.50;;;11.25;;
76758;SDS011;65701;45.588;5.186;2024-02-04T15:22:28;12.00;;;10.50;;
76758;SDS011;65701;45.588;5.186;2024-02-04T15:24:55;14.75;;;14.00;;
76758;SDS011;65701;45.588;5.186;2024-02-04T15:27:21;8.25;;;8.25;;
76758;SDS011;65701;45.588;5.186;2024-02-04T15:29:47;16.50;;;11.75;;
76758;SDS011;65701;45.588;5.186;2024-02-04T15:32:14;11.75;;;9.00;;
76758;SDS011;65701;45.588;5.186;2024-02-04T15:34:43;9.25;;;7.50;;
76758;SDS011;65701;45.588;5.186;2024-02-04T15:37:09;12.75;;;10.75;;
76758;SDS011;65701;45.588;5.186;2024-02-04T15:39:35;12.25;;;9.50;;
76758;SDS011;65701;45.588;5.186;2024-02-04T15:42:02;14.50;;;8.75;;
76758;SDS011;65701;45.588;5.186;2024-02-04T15:44:29;10.50;;;10.50;;
76758;SDS011;65701;45.588;5.186;2024-02-04T15:46:55;12.50;;;12.00;;
76758;SDS011;65701;45.588;5.186;2024-02-04T15:49:22;10.00;;;8.25;;
76758;SDS011;65701;45.588;5.186;2024-02-04T15:51:49;8.75;;;7.75;;
76758;SDS011;65701;45.588;5.186;2024-02-04T15:54:15;11.25;;;7.00;;
76758;SDS011;65701;45.588;5.186;2024-02-04T15:56:41;13.75;;;11.00;;
76758;SDS011;65701;45.588;5.186;2024-02-04T15:59:11;11.25;;;9.75;;
76758;SDS011;65701;45.588;5.186;2024-02-04T16:01:38;10.75;;;10.75;;
76758;SDS011;65701;45.588;5.186;2024-02-04T16:04:08;9.75;;;9.75;;
76758;SDS011;65701;45.588;5.186;2024-02-04T16:06:34;7.75;;;7.00;;
76758;SDS011;65701;45.588;5.186;2024-02-04T16:09:00;6.50;;;6.50;;
76758;SDS011;65701;45.588;5.186;2024-02-04T16:11:36;9.75;;;8.75;;
76758;SDS011;65701;45.588;5.186;2024-02-04T16:14:08;15.25;;;8.50;;
76758;SDS011;65701;45.588;5.186;2024-02-04T16:16:36;9.75;;;5.75;;
76758;SDS011;65701;45.588;5.186;2024-02-04T16:19:08;6.50;;;5.75;;
76758;SDS011;65701;45.588;5.186;2024-02-04T16:21:34;8.25;;;8.25;;
76758;SDS011;65701;45.588;5.186;2024-02-04T16:24:01;9.50;;;9.50;;
76758;SDS011;65701;45.588;5.186;2024-02-04T16:26:27;6.25;;;6.00;;
76758;SDS011;65701;45.588;5.186;2024-02-04T16:28:52;6.75;;;6.50;;
76758;SDS011;65701;45.588;5.186;2024-02-04T16:31:18;9.75;;;7.25;;
76758;SDS011;65701;45.588;5.186;2024-02-04T16:33:44;7.50;;;6.00;;
76758;SDS011;65701;45.588;5.186;2024-02-04T16:36:09;8.50;;;8.50;;
76758;SDS011;65701;45.588;5.186;2024-02-04T16:38:34;8.25;;;6.50;;
76758;SDS011;65701;45.588;5.186;2024-02-04T16:41:00;5.00;;;5.00;;
76758;SDS011;65701;45.588;5.186;2024-02-04T16:43:26;19.75;;;19.00;;
76758;SDS011;65701;45.588;5.186;2024-02-04T16:45:51;9.75;;;9.75;;
76758;SDS011;65701;45.588;5.186;2024-02-04T16:48:17;12.00;;;11.00;;
76758;SDS011;65701;45.588;5.186;2024-02-04T16:50:42;10.75;;;8.00;;
76758;SDS011;65701;45.588;5.186;2024-02-04T16:53:08;10.50;;;8.50;;
76758;SDS011;65701;45.588;5.186;2024-02-04T16:55:34;5.75;;;5.75;;
76758;SDS011;65701;45.588;5.186;2024-02-04T16:58:00;10.25;;;6.75;;
76758;SDS011;65701;45.588;5.186;2024-02-04T17:00:25;10.50;;;9.00;;
76758;SDS011;65701;45.588;5.186;2024-02-04T17:02:51;9.25;;;8.25;;
76758;SDS011;65701;45.588;5.186;2024-02-04T17:05:18;9.00;;;9.00;;
76758;SDS011;65701;45.588;5.186;2024-02-04T17:07:45;4.75;;;4.75;;
76758;SDS011;65701;45.588;5.186;2024-02-04T17:10:11;6.50;;;6.50;;
76758;SDS011;65701;45.588;5.186;2024-02-04T17:12:37;10.25;;;6.25;;
76758;SDS011;65701;45.588;5.186;2024-02-04T17:15:04;10.50;;;9.50;;
76758;SDS011;65701;45.588;5.186;2024-02-04T17:17:30;9.00;;;8.25;;
76758;SDS011;65701;45.588;5.186;2024-02-04T17:20:08;7.50;;;7.00;;
76758;SDS011;65701;45.588;5.186;2024-02-04T17:22:39;9.50;;;7.00;;
76758;SDS011;65701;45.588;5.186;2024-02-04T17:25:07;10.25;;;7.75;;
76758;SDS011;65701;45.588;5.186;2024-02-04T17:27:35;11.00;;;10.25;;
76758;SDS011;65701;45.588;5.186;2024-02-04T17:30:04;9.75;;;9.75;;
76758;SDS011;65701;45.588;5.186;2024-02-04T17:32:31;10.00;;;10.00;;
76758;SDS011;65701;45.588;5.186;2024-02-04T17:34:58;12.50;;;10.50;;
76758;SDS011;65701;45.588;5.186;2024-02-04T17:37:24;9.25;;;9.25;;
76758;SDS011;65701;45.588;5.186;2024-02-04T17:39:50;10.50;;;10.25;;
76758;SDS011;65701;45.588;5.186;2024-02-04T17:42:15;9.25;;;8.00;;
76758;SDS011;65701;45.588;5.186;2024-02-04T17:44:41;12.00;;;10.00;;
76758;SDS011;65701;45.588;5.186;2024-02-04T17:47:15;10.00;;;7.50;;
76758;SDS011;65701;45.588;5.186;2024-02-04T17:49:41;7.50;;;7.00;;
76758;SDS011;65701;45.588;5.186;2024-02-04T17:52:06;8.00;;;8.00;;
76758;SDS011;65701;45.588;5.186;2024-02-04T17:54:32;11.25;;;10.00;;
76758;SDS011;65701;45.588;5.186;2024-02-04T17:56:59;9.25;;;8.00;;
76758;SDS011;65701;45.588;5.186;2024-02-04T17:59:25;11.50;;;11.00;;
76758;SDS011;65701;45.588;5.186;2024-02-04T18:01:51;14.00;;;10.00;;
76758;SDS011;65701;45.588;5.186;2024-02-04T18:04:16;11.25;;;9.75;;
76758;SDS011;65701;45.588;5.186;2024-02-04T18:06:42;9.75;;;8.25;;
76758;SDS011;65701;45.588;5.186;2024-02-04T18:09:07;10.00;;;10.00;;
76758;SDS011;65701;45.588;5.186;2024-02-04T18:11:34;12.50;;;10.50;;
76758;SDS011;65701;45.588;5.186;2024-02-04T18:14:00;12.50;;;10.00;;
76758;SDS011;65701;45.588;5.186;2024-02-04T18:16:27;10.00;;;10.00;;
76758;SDS011;65701;45.588;5.186;2024-02-04T18:18:52;14.25;;;14.25;;
76758;SDS011;65701;45.588;5.186;2024-02-04T18:21:20;14.00;;;11.00;;
76758;SDS011;65701;45.588;5.186;2024-02-04T18:23:47;14.50;;;11.50;;
76758;SDS011;65701;45.588;5.186;2024-02-04T18:26:24;8.00;;;6.25;;
76758;SDS011;65701;45.588;5.186;2024-02-04T18:28:54;13.50;;;12.50;;
76758;SDS011;65701;45.588;5.186;2024-02-04T18:31:21;11.75;;;9.50;;
76758;SDS011;65701;45.588;5.186;2024-02-04T18:33:47;10.50;;;10.50;;
76758;SDS011;65701;45.588;5.186;2024-02-04T18:36:14;15.75;;;11.00;;
76758;SDS011;65701;45.588;5.186;2024-02-04T18:38:41;14.50;;;12.00;;
76758;SDS011;65701;45.588;5.186;2024-02-04T18:41:08;11.00;;;11.00;;
76758;SDS011;65701;45.588;5.186;2024-02-04T18:43:36;9.50;;;8.25;;
76758;SDS011;65701;45.588;5.186;2024-02-04T18:46:03;17.00;;;13.75;;
76758;SDS011;65701;45.588;5.186;2024-02-04T18:48:30;13.00;;;12.25;;
76758;SDS011;65701;45.588;5.186;2024-02-04T18:50:56;11.00;;;10.00;;
76758;SDS011;65701;45.588;5.186;2024-02-04T18:53:22;15.50;;;14.00;;
76758;SDS011;65701;45.588;5.186;2024-02-04T18:55:47;15.00;;;12.50;;
76758;SDS011;65701;45.588;5.186;2024-02-04T18:58:15;14.50;;;11.00;;
76758;SDS011;65701;45.588;5.186;2024-02-04T19:00:41;16.75;;;12.00;;
76758;SDS011;65701;45.588;5.186;2024-02-04T19:03:06;10.25;;;9.75;;
76758;SDS011;65701;45.588;5.186;2024-02-04T19:05:32;8.00;;;8.00;;
76758;SDS011;65701;45.588;5.186;2024-02-04T19:07:57;18.00;;;14.75;;
76758;SDS011;65701;45.588;5.186;2024-02-04T19:10:23;14.50;;;13.75;;
76758;SDS011;65701;45.588;5.186;2024-02-04T19:12:49;18.00;;;14.75;;
76758;SDS011;65701;45.588;5.186;2024-02-04T19:15:14;16.00;;;14.50;;
76758;SDS011;65701;45.588;5.186;2024-02-04T19:17:40;13.75;;;11.00;;
76758;SDS011;65701;45.588;5.186;2024-02-04T19:20:05;17.50;;;14.25;;
76758;SDS011;65701;45.588;5.186;2024-02-04T19:22:33;16.25;;;16.25;;
76758;SDS011;65701;45.588;5.186;2024-02-04T19:25:05;16.00;;;14.00;;
76758;SDS011;65701;45.588;5.186;2024-02-04T19:27:30;17.25;;;11.50;;
76758;SDS011;65701;45.588;5.186;2024-02-04T19:29:56;15.25;;;12.50;;
76758;SDS011;65701;45.588;5.186;2024-02-04T19:32:21;13.50;;;12.00;;
76758;SDS011;65701;45.588;5.186;2024-02-04T19:34:47;14.50;;;12.50;;
76758;SDS011;65701;45.588;5.186;2024-02-04T19:37:12;15.50;;;11.25;;
76758;SDS011;65701;45.588;5.186;2024-02-04T19:39:38;10.00;;;10.00;;
76758;SDS011;65701;45.588;5.186;2024-02-04T19:42:03;12.25;;;10.75;;
76758;SDS011;65701;45.588;5.186;2024-02-04T19:44:29;11.25;;;10.25;;
76758;SDS011;65701;45.588;5.186;2024-02-04T19:46:54;14.25;;;11.25;;
76758;SDS011;65701;45.588;5.186;2024-02-04T19:49:20;15.25;;;14.00;;
76758;SDS011;65701;45.588;5.186;2024-02-04T19:51:46;13.75;;;13.75;;
76758;SDS011;65701;45.588;5.186;2024-02-04T19:54:11;15.50;;;13.25;;
76758;SDS011;65701;45.588;5.186;2024-02-04T19:56:37;10.25;;;10.25;;
76758;SDS011;65701;45.588;5.186;2024-02-04T19:59:02;12.25;;;11.75;;
76758;SDS011;65701;45.588;5.186;2024-02-04T20:01:32;16.50;;;14.75;;
76758;SDS011;65701;45.588;5.186;2024-02-04T20:03:58;13.25;;;11.00;;
76758;SDS011;65701;45.588;5.186;2024-02-04T20:06:24;11.75;;;11.75;;
76758;SDS011;65701;45.588;5.186;2024-02-04T20:08:50;14.00;;;10.75;;
76758;SDS011;65701;45.588;5.186;2024-02-04T20:11:15;13.25;;;13.25;;
76758;SDS011;65701;45.588;5.186;2024-02-04T20:13:41;16.75;;;14.00;;
76758;SDS011;65701;45.588;5.186;2024-02-04T20:16:10;17.25;;;16.25;;
76758;SDS011;65701;45.588;5.186;2024-02-04T20:18:36;13.75;;;10.25;;
76758;SDS011;65701;45.588;5.186;2024-02-04T20:21:02;18.25;;;12.50;;
76758;SDS011;65701;45.588;5.186;2024-02-04T20:23:28;15.25;;;14.25;;
76758;SDS011;65701;45.588;5.186;2024-02-04T20:25:53;18.75;;;13.50;;
76758;SDS011;65701;45.588;5.186;2024-02-04T20:28:22;15.00;;;12.25;;
76758;SDS011;65701;45.588;5.186;2024-02-04T20:30:49;12.75;;;12.75;;
76758;SDS011;65701;45.588;5.186;2024-02-04T20:33:14;14.00;;;11.00;;
76758;SDS011;65701;45.588;5.186;2024-02-04T20:35:40;13.50;;;12.00;;
76758;SDS011;65701;45.588;5.186;2024-02-04T20:38:08;13.75;;;13.50;;
76758;SDS011;65701;45.588;5.186;2024-02-04T20:40:33;18.75;;;15.00;;
76758;SDS011;65701;45.588;5.186;2024-02-04T20:42:59;17.50;;;16.00;;
76758;SDS011;65701;45.588;5.186;2024-02-04T20:45:25;14.50;;;13.75;;
76758;SDS011;65701;45.588;5.186;2024-02-04T20:47:52;16.50;;;15.00;;
76758;SDS011;65701;45.588;5.186;2024-02-04T20:50:18;18.50;;;14.75;;
76758;SDS011;65701;45.588;5.186;2024-02-04T20:52:43;12.25;;;12.25;;
76758;SDS011;65701;45.588;5.186;2024-02-04T20:55:09;17.25;;;11.75;;
76758;SDS011;65701;45.588;5.186;2024-02-04T20:57:34;15.00;;;12.00;;
76758;SDS011;65701;45.588;5.186;2024-02-04T21:00:00;18.25;;;15.50;;
76758;SDS011;65701;45.588;5.186;2024-02-04T21:02:25;18.50;;;15.00;;
76758;SDS011;65701;45.588;5.186;2024-02-04T21:04:51;15.00;;;15.00;;
76758;SDS011;65701;45.588;5.186;2024-02-04T21:07:16;19.75;;;17.00;;
76758;SDS011;65701;45.588;5.186;2024-02-04T21:09:42;22.50;;;15.50;;
76758;SDS011;65701;45.588;5.186;2024-02-04T21:12:07;22.50;;;19.75;;
76758;SDS011;65701;45.588;5.186;2024-02-04T21:14:33;18.75;;;16.25;;
76758;SDS011;65701;45.588;5.186;2024-02-04T21:16:58;20.75;;;18.25;;
76758;SDS011;65701;45.588;5.186;2024-02-04T21:19:24;21.50;;;18.00;;
76758;SDS011;65701;45.588;5.186;2024-02-04T21:21:49;16.50;;;16.50;;
76758;SDS011;65701;45.588;5.186;2024-02-04T21:24:15;19.25;;;17.75;;
76758;SDS011;65701;45.588;5.186;2024-02-04T21:26:40;12.25;;;12.25;;
